createdAt,value
2023-05-19T00:01:15.290Z,101172.06
2023-05-19T00:03:55.206Z,101167.62
2023-05-19T00:06:26.777Z,101167.62
2023-05-19T00:08:57.597Z,101172.09
2023-05-19T00:11:26.515Z,101161.50
2023-05-19T00:14:00.612Z,101165.94
2023-05-19T00:16:28.034Z,101170.38
2023-05-19T00:18:55.035Z,101172.16
2023-05-19T00:21:21.711Z,101166.06
2023-05-19T00:23:48.339Z,101176.66
2023-05-19T00:26:15.008Z,101173.16
2023-05-19T00:28:41.652Z,101171.38
2023-05-19T00:31:08.348Z,101169.59
2023-05-19T00:33:35.232Z,101161.66
2023-05-19T00:36:03.458Z,101166.97
2023-05-19T00:38:35.239Z,101157.34
2023-05-19T00:41:02.326Z,101156.41
2023-05-19T00:43:30.229Z,101155.56
2023-05-19T00:45:57.670Z,101157.34
2023-05-19T00:48:25.421Z,101156.47
2023-05-19T00:50:53.332Z,101158.25
2023-05-19T00:53:19.965Z,101151.19
2023-05-19T00:55:46.689Z,101153.00
2023-05-19T00:58:13.318Z,101151.19
2023-05-19T01:00:40.154Z,101148.63
2023-05-19T01:03:11.588Z,101151.25
2023-05-19T01:05:42.054Z,101149.53
2023-05-19T01:08:08.919Z,101154.84
2023-05-19T01:10:35.643Z,101149.53
2023-05-19T01:13:03.271Z,101150.47
2023-05-19T01:15:32.528Z,101153.16
2023-05-19T01:18:07.467Z,101146.97
2023-05-19T01:20:46.501Z,101146.97
2023-05-19T01:23:36.735Z,101143.44
2023-05-19T01:26:21.657Z,101143.44
2023-05-19T01:29:00.434Z,101150.53
2023-05-19T01:31:27.156Z,101154.97
2023-05-19T01:33:54.279Z,101155.87
2023-05-19T01:36:22.434Z,101155.87
2023-05-19T01:38:51.519Z,101154.16
2023-05-19T01:41:19.372Z,101148.84
2023-05-19T01:43:46.063Z,101147.97
2023-05-19T01:46:12.878Z,101137.41
2023-05-19T01:48:39.524Z,101137.41
2023-05-19T01:51:06.325Z,101140.06
2023-05-19T01:53:33.559Z,101141.84
2023-05-19T01:56:00.829Z,101142.78
2023-05-19T01:58:38.212Z,101142.81
2023-05-19T02:01:22.285Z,101139.28
2023-05-19T02:04:09.265Z,101135.78
2023-05-19T02:06:41.723Z,101141.09
2023-05-19T02:09:13.458Z,101141.09
2023-05-19T02:11:53.478Z,101147.31
2023-05-19T02:14:21.700Z,101144.66
2023-05-19T02:16:48.593Z,101146.50
2023-05-19T02:19:26.576Z,101146.50
2023-05-19T02:21:53.320Z,101150.94
2023-05-19T02:24:20.247Z,101147.41
2023-05-19T02:26:46.950Z,101143.03
2023-05-19T02:29:13.604Z,101149.25
2023-05-19T02:31:40.316Z,101146.59
2023-05-19T02:34:08.681Z,101143.09
2023-05-19T02:36:36.695Z,101146.66
2023-05-19T02:39:04.037Z,101148.44
2023-05-19T02:41:30.777Z,101146.69
2023-05-19T02:43:58.052Z,101147.53
2023-05-19T02:46:24.753Z,101143.16
2023-05-19T02:48:52.250Z,101143.16
2023-05-19T02:51:21.228Z,101137.94
2023-05-19T02:53:50.210Z,101137.06
2023-05-19T02:56:17.117Z,101138.84
2023-05-19T02:58:43.858Z,101138.84
2023-05-19T03:01:11.165Z,101142.41
2023-05-19T03:03:38.220Z,101139.75
2023-05-19T03:06:05.057Z,101139.75
2023-05-19T03:08:31.781Z,101138.03
2023-05-19T03:11:00.469Z,101151.28
2023-05-19T03:13:27.308Z,101135.44
2023-05-19T03:15:53.955Z,101146.91
2023-05-19T03:18:20.744Z,101148.69
2023-05-19T03:20:49.559Z,101145.16
2023-05-19T03:23:16.384Z,101145.16
2023-05-19T03:25:42.992Z,101148.75
2023-05-19T03:28:10.211Z,101154.94
2023-05-19T03:30:37.277Z,101163.78
2023-05-19T03:33:05.465Z,101165.53
2023-05-19T03:35:32.193Z,101161.16
2023-05-19T03:37:58.940Z,101155.84
2023-05-19T03:40:25.770Z,101141.81
2023-05-19T03:42:54.312Z,101150.62
2023-05-19T03:45:21.214Z,101146.25
2023-05-19T03:47:48.687Z,101150.66
2023-05-19T03:50:15.387Z,101153.31
2023-05-19T03:52:45.506Z,101151.56
2023-05-19T03:55:12.643Z,101153.31
2023-05-19T03:57:41.399Z,101153.34
2023-05-19T04:00:11.211Z,101159.50
2023-05-19T04:02:38.181Z,101165.66
2023-05-19T04:05:05.376Z,101154.22
2023-05-19T04:07:32.073Z,101156.00
2023-05-19T04:09:58.839Z,101155.13
2023-05-19T04:12:25.496Z,101157.78
2023-05-19T04:14:52.173Z,101162.22
2023-05-19T04:17:18.865Z,101168.38
2023-05-19T04:19:45.555Z,101166.66
2023-05-19T04:22:12.262Z,101164.00
2023-05-19T04:24:38.991Z,101172.81
2023-05-19T04:27:05.925Z,101171.94
2023-05-19T04:29:32.671Z,101179.03
2023-05-19T04:32:00.928Z,101171.94
2023-05-19T04:34:28.784Z,101179.03
2023-05-19T04:36:55.587Z,101176.37
2023-05-19T04:39:22.278Z,101178.25
2023-05-19T04:41:49.009Z,101185.69
2023-05-19T04:44:18.220Z,101189.66
2023-05-19T04:46:45.349Z,101187.38
2023-05-19T04:49:14.699Z,101188.38
2023-05-19T04:51:41.615Z,101187.75
2023-05-19T04:54:08.649Z,101188.53
2023-05-19T04:56:35.593Z,101192.38
2023-05-19T04:59:02.240Z,101193.66
2023-05-19T05:01:31.456Z,101190.00
2023-05-19T05:03:59.266Z,101193.28
2023-05-19T05:06:26.608Z,101194.00
2023-05-19T05:08:53.534Z,101200.16
2023-05-19T05:11:20.698Z,101205.12
2023-05-19T05:13:47.896Z,101202.94
2023-05-19T05:16:15.318Z,101204.84
2023-05-19T05:18:44.671Z,101204.72
2023-05-19T05:21:12.413Z,101205.88
2023-05-19T05:23:39.324Z,101201.97
2023-05-19T05:26:15.016Z,101216.69
2023-05-19T05:28:41.660Z,101212.03
2023-05-19T05:31:08.332Z,101215.34
2023-05-19T05:33:35.061Z,101211.72
2023-05-19T05:36:01.790Z,101205.31
2023-05-19T05:38:31.110Z,101207.72
2023-05-19T05:40:57.718Z,101205.75
2023-05-19T05:43:24.430Z,101204.69
2023-05-19T05:45:51.195Z,101208.22
2023-05-19T05:48:18.190Z,101207.28
2023-05-19T05:50:45.570Z,101201.88
2023-05-19T05:53:20.795Z,101209.91
2023-05-19T05:55:47.993Z,101212.44
2023-05-19T05:58:15.686Z,101210.53
2023-05-19T06:00:47.958Z,101213.03
2023-05-19T06:03:14.753Z,101211.97
2023-05-19T06:05:41.523Z,101213.56
2023-05-19T06:08:08.291Z,101210.78
2023-05-19T06:10:36.850Z,101212.53
2023-05-19T06:13:03.610Z,101216.00
2023-05-19T06:15:30.319Z,101222.28
2023-05-19T06:17:59.716Z,101219.63
2023-05-19T06:20:26.602Z,101214.16
2023-05-19T06:22:53.382Z,101217.56
2023-05-19T06:25:20.866Z,101221.00
2023-05-19T06:27:47.644Z,101225.28
2023-05-19T06:30:14.569Z,101232.25
2023-05-19T06:32:41.391Z,101231.31
2023-05-19T06:35:08.389Z,101234.09
2023-05-19T06:37:35.061Z,101231.28
2023-05-19T06:40:01.794Z,101238.22
2023-05-19T06:42:28.466Z,101245.91
2023-05-19T06:44:57.893Z,101245.91
2023-05-19T06:47:24.609Z,101251.22
2023-05-19T06:49:55.345Z,101251.28
2023-05-19T06:52:22.540Z,101257.69
2023-05-19T06:54:49.678Z,101249.56
2023-05-19T06:57:16.352Z,101264.34
2023-05-19T06:59:43.612Z,101259.91
2023-05-19T07:02:10.437Z,101251.22
2023-05-19T07:04:37.239Z,101266.84
2023-05-19T07:07:04.172Z,101264.19
2023-05-19T07:09:30.946Z,101256.56
2023-05-19T07:11:57.722Z,101247.75
2023-05-19T07:14:26.656Z,101256.56
2023-05-19T07:16:53.663Z,101251.50
2023-05-19T07:19:20.674Z,101248.94
2023-05-19T07:21:47.592Z,101254.56
2023-05-19T07:24:14.243Z,101252.84
2023-05-19T07:26:41.504Z,101250.56
2023-05-19T07:29:08.216Z,101246.34
2023-05-19T07:31:34.886Z,101245.59
2023-05-19T07:34:01.700Z,101236.91
2023-05-19T07:36:28.350Z,101237.03
2023-05-19T07:38:55.022Z,101232.84
2023-05-19T07:41:21.937Z,101233.91
2023-05-19T07:43:49.245Z,101235.66
2023-05-19T07:46:16.398Z,101226.87
2023-05-19T07:48:43.079Z,101240.16
2023-05-19T07:51:12.844Z,101225.91
2023-05-19T07:53:39.648Z,101223.25
2023-05-19T07:56:06.633Z,101221.44
2023-05-19T07:58:33.392Z,101224.94
2023-05-19T08:01:00.612Z,101232.91
2023-05-19T08:03:27.653Z,101227.53
2023-05-19T08:05:54.545Z,101222.16
2023-05-19T08:08:21.988Z,101223.81
2023-05-19T08:10:48.784Z,101222.88
2023-05-19T08:13:24.839Z,101215.69
2023-05-19T08:15:51.698Z,101219.22
2023-05-19T08:18:18.445Z,101214.78
2023-05-19T08:20:46.373Z,101213.13
2023-05-19T08:23:13.109Z,101221.06
2023-05-19T08:25:40.691Z,101214.03
2023-05-19T08:28:10.493Z,101217.50
2023-05-19T08:30:37.135Z,101210.25
2023-05-19T08:33:03.888Z,101211.09
2023-05-19T08:35:30.784Z,101215.31
2023-05-19T08:37:57.453Z,101214.44
2023-05-19T08:40:24.194Z,101208.22
2023-05-19T08:42:51.369Z,101201.97
2023-05-19T08:45:18.217Z,101202.91
2023-05-19T08:47:48.228Z,101209.06
2023-05-19T08:50:18.960Z,101208.22
2023-05-19T08:53:28.957Z,101208.22
2023-05-19T08:56:10.656Z,101209.84
2023-05-19T08:58:43.705Z,101209.72
2023-05-19T09:01:14.232Z,101207.75
2023-05-19T09:03:41.372Z,101209.38
2023-05-19T09:06:09.012Z,101210.22
2023-05-19T09:08:36.589Z,101203.88
2023-05-19T09:11:03.371Z,101206.22
2023-05-19T09:13:30.020Z,101214.03
2023-05-19T09:15:57.457Z,101206.72
2023-05-19T09:18:27.264Z,101209.97
2023-05-19T09:21:00.752Z,101216.78
2023-05-19T09:23:34.131Z,101211.22
2023-05-19T09:26:07.151Z,101207.44
2023-05-19T09:28:34.745Z,101206.22
2023-05-19T09:31:11.349Z,101210.37
2023-05-19T09:33:42.897Z,101211.03
2023-05-19T09:36:11.663Z,101202.06
2023-05-19T09:38:38.764Z,101196.63
2023-05-19T09:41:06.518Z,101196.56
2023-05-19T09:43:33.935Z,101208.81
2023-05-19T09:46:03.473Z,101200.72
2023-05-19T09:48:30.615Z,101198.06
2023-05-19T09:50:57.915Z,101194.56
2023-05-19T09:53:25.300Z,101200.72
2023-05-19T09:55:55.517Z,101189.28
2023-05-19T09:58:22.345Z,101185.69
2023-05-19T10:00:48.996Z,101182.16
2023-05-19T10:03:16.526Z,101183.16
2023-05-19T10:05:43.369Z,101186.78
2023-05-19T10:08:10.556Z,101178.06
2023-05-19T10:10:38.062Z,101179.94
2023-05-19T10:13:05.382Z,101172.81
2023-05-19T10:15:33.242Z,101172.91
2023-05-19T10:18:03.481Z,101169.31
2023-05-19T10:20:30.734Z,101165.87
2023-05-19T10:22:57.606Z,101165.03
2023-05-19T10:25:24.280Z,101155.41
2023-05-19T10:27:59.315Z,101160.75
2023-05-19T10:30:31.878Z,101155.59
2023-05-19T10:32:59.087Z,101152.97
2023-05-19T10:35:45.390Z,101148.53
2023-05-19T10:38:33.855Z,101158.28
2023-05-19T10:41:23.276Z,101158.19
2023-05-19T10:44:21.428Z,101160.91
2023-05-19T10:46:48.109Z,101154.72
2023-05-19T10:49:23.640Z,101154.84
2023-05-19T10:51:51.889Z,101150.47
2023-05-19T10:54:19.608Z,101146.94
2023-05-19T10:56:47.578Z,101149.53
2023-05-19T10:59:33.758Z,101147.81
2023-05-19T11:02:06.677Z,101138.91
2023-05-19T11:04:40.102Z,101138.03
2023-05-19T11:07:09.369Z,101137.19
2023-05-19T11:09:40.940Z,101133.78
2023-05-19T11:12:08.794Z,101130.34
2023-05-19T11:14:35.568Z,101124.28
2023-05-19T11:17:02.368Z,101126.22
2023-05-19T11:19:35.556Z,101126.25
2023-05-19T11:22:12.299Z,101122.88
2023-05-19T11:24:40.110Z,101122.13
2023-05-19T11:27:33.095Z,101122.22
2023-05-19T11:30:11.746Z,101116.13
2023-05-19T11:32:44.483Z,101130.34
2023-05-19T11:35:11.478Z,101126.84
2023-05-19T11:37:40.425Z,101126.91
2023-05-19T11:40:07.723Z,101127.84
2023-05-19T11:42:37.227Z,101123.50
2023-05-19T11:45:04.734Z,101118.25
2023-05-19T11:47:39.116Z,101117.44
2023-05-19T11:50:13.984Z,101118.31
2023-05-19T11:52:44.748Z,101117.56
2023-05-19T11:55:16.209Z,101121.13
2023-05-19T11:58:02.812Z,101116.66
2023-05-19T12:00:34.906Z,101118.50
2023-05-19T12:03:01.796Z,101121.13
2023-05-19T12:05:29.320Z,101108.78
2023-05-19T12:07:56.063Z,101108.81
2023-05-19T12:10:31.142Z,101106.16
2023-05-19T12:12:58.676Z,101107.97
2023-05-19T12:15:25.567Z,101102.72
2023-05-19T12:17:56.971Z,101102.72
2023-05-19T12:20:23.676Z,101096.50
2023-05-19T12:22:51.043Z,101100.16
2023-05-19T12:25:17.933Z,101092.22
2023-05-19T12:27:44.811Z,101093.12
2023-05-19T12:30:12.818Z,101092.28
2023-05-19T12:32:39.555Z,101089.66
2023-05-19T12:35:07.001Z,101081.69
2023-05-19T12:37:34.889Z,101079.97
2023-05-19T12:40:02.105Z,101074.72
2023-05-19T12:42:31.400Z,101068.50
2023-05-19T12:45:00.865Z,101069.47
2023-05-19T12:47:33.439Z,101065.09
2023-05-19T12:50:00.290Z,101065.94
2023-05-19T12:52:27.808Z,101055.41
2023-05-19T12:55:01.641Z,101056.34
2023-05-19T12:57:32.112Z,101051.97
2023-05-19T13:00:15.063Z,101045.75
2023-05-19T13:02:55.957Z,101052.00
2023-05-19T13:05:23.058Z,101048.47
2023-05-19T13:08:00.538Z,101060.03
2023-05-19T13:10:27.692Z,101050.34
2023-05-19T13:12:58.076Z,101050.37
2023-05-19T13:15:26.323Z,101056.53
2023-05-19T13:17:53.325Z,101046.00
2023-05-19T13:20:20.848Z,101037.16
2023-05-19T13:22:48.106Z,101044.28
2023-05-19T13:25:14.850Z,101037.25
2023-05-19T13:27:41.577Z,101036.38
2023-05-19T13:30:08.784Z,101034.63
2023-05-19T13:32:35.447Z,101027.59
2023-05-19T13:35:02.349Z,101027.59
2023-05-19T13:37:29.273Z,101024.16
2023-05-19T13:39:56.022Z,101020.63
2023-05-19T13:42:22.746Z,101017.13
2023-05-19T13:44:49.488Z,101010.88
2023-05-19T13:47:16.376Z,101016.22
2023-05-19T13:49:43.144Z,101015.38
2023-05-19T13:52:09.807Z,101017.16
2023-05-19T13:54:36.593Z,101015.44
2023-05-19T13:57:03.314Z,101012.00
2023-05-19T13:59:30.186Z,101012.84
2023-05-19T14:01:57.195Z,101006.69
2023-05-19T14:04:24.692Z,101011.09
2023-05-19T14:06:51.438Z,101003.13
2023-05-19T14:09:18.290Z,101000.56
2023-05-19T14:11:44.896Z,101005.00
2023-05-19T14:14:11.802Z,101006.78
2023-05-19T14:16:38.974Z,100996.19
2023-05-19T14:19:05.684Z,100998.81
2023-05-19T14:21:32.790Z,100992.66
2023-05-19T14:23:59.527Z,101000.63
2023-05-19T14:26:28.626Z,100991.81
2023-05-19T14:28:57.124Z,100990.03
2023-05-19T14:31:23.827Z,100990.94
2023-05-19T14:33:51.315Z,100989.19
2023-05-19T14:36:18.111Z,100997.22
2023-05-19T14:38:44.841Z,100991.91
2023-05-19T14:41:14.751Z,100994.62
2023-05-19T14:43:43.160Z,100995.50
2023-05-19T14:46:09.885Z,101000.84
2023-05-19T14:48:36.639Z,101001.72
2023-05-19T14:51:03.436Z,100996.44
2023-05-19T14:53:30.154Z,100989.41
2023-05-19T14:55:56.832Z,100992.94
2023-05-19T14:58:28.968Z,100990.28
2023-05-19T15:01:00.910Z,100989.41
2023-05-19T15:03:27.615Z,100984.12
2023-05-19T15:05:54.345Z,100981.53
2023-05-19T15:08:21.031Z,100979.81
2023-05-19T15:10:50.691Z,100983.31
2023-05-19T15:13:19.069Z,100977.09
2023-05-19T15:15:46.137Z,100982.41
2023-05-19T15:18:13.234Z,100975.38
2023-05-19T15:20:40.144Z,100973.63
2023-05-19T15:23:06.801Z,100978.06
2023-05-19T15:25:33.526Z,100971.91
2023-05-19T15:28:00.220Z,100981.63
2023-05-19T15:30:28.889Z,100983.44
2023-05-19T15:32:55.799Z,100991.38
2023-05-19T15:35:22.492Z,100979.97
2023-05-19T15:37:49.143Z,100984.34
2023-05-19T15:40:15.939Z,100985.22
2023-05-19T15:42:42.571Z,100977.34
2023-05-19T15:45:09.736Z,100981.72
2023-05-19T15:47:36.448Z,100979.97
2023-05-19T15:50:03.466Z,100973.78
2023-05-19T15:52:30.124Z,100979.09
2023-05-19T15:54:59.099Z,100976.44
2023-05-19T15:57:25.924Z,100975.56
2023-05-19T15:59:52.581Z,100977.38
2023-05-19T16:02:19.793Z,100978.28
2023-05-19T16:04:46.538Z,100974.78
2023-05-19T16:07:13.161Z,100974.78
2023-05-19T16:09:39.803Z,100972.13
2023-05-19T16:12:06.838Z,100977.44
2023-05-19T16:14:36.468Z,100981.00
2023-05-19T16:17:03.918Z,100979.22
2023-05-19T16:19:30.743Z,100981.00
2023-05-19T16:21:57.600Z,100981.91
2023-05-19T16:24:24.829Z,100987.22
2023-05-19T16:26:53.724Z,100981.06
2023-05-19T16:29:20.534Z,100986.34
2023-05-19T16:31:49.912Z,100983.75
2023-05-19T16:34:16.829Z,100989.94
2023-05-19T16:36:43.553Z,100994.38
2023-05-19T16:39:10.180Z,100983.75
2023-05-19T16:41:36.944Z,100989.94
2023-05-19T16:44:03.604Z,100983.75
2023-05-19T16:46:31.541Z,100994.38
2023-05-19T16:48:58.591Z,100985.63
2023-05-19T16:51:25.268Z,100988.28
2023-05-19T16:53:52.052Z,100991.78
2023-05-19T16:56:18.777Z,100989.13
2023-05-19T16:58:45.611Z,100985.63
2023-05-19T17:01:12.494Z,100982.03
2023-05-19T17:03:39.358Z,100985.63
2023-05-19T17:06:06.231Z,100984.75
2023-05-19T17:08:32.930Z,100984.78
2023-05-19T17:10:59.587Z,100989.16
2023-05-19T17:13:28.334Z,100983.94
2023-05-19T17:15:55.040Z,100994.53
2023-05-19T17:18:22.960Z,100990.09
2023-05-19T17:20:49.575Z,100983.06
2023-05-19T17:23:16.266Z,100986.59
2023-05-19T17:25:42.886Z,100986.66
2023-05-19T17:28:09.645Z,100987.50
2023-05-19T17:30:36.341Z,100990.16
2023-05-19T17:33:03.803Z,100992.81
2023-05-19T17:35:30.763Z,100995.47
2023-05-19T17:37:58.009Z,100998.19
2023-05-19T17:40:24.720Z,100998.12
2023-05-19T17:42:51.373Z,100999.91
2023-05-19T17:45:18.233Z,101006.13
2023-05-19T17:47:44.971Z,101011.44
2023-05-19T17:50:11.737Z,101011.44
2023-05-19T17:52:40.195Z,101006.16
2023-05-19T17:55:07.698Z,101004.38
2023-05-19T17:57:34.450Z,101010.59
2023-05-19T18:00:01.577Z,101005.31
2023-05-19T18:02:28.484Z,101014.13
2023-05-19T18:04:55.707Z,101010.59
2023-05-19T18:07:24.997Z,101005.31
2023-05-19T18:09:51.811Z,101007.09
2023-05-19T18:12:18.552Z,101007.09
2023-05-19T18:14:45.220Z,101007.09
2023-05-19T18:17:11.927Z,101004.44
2023-05-19T18:19:38.682Z,101000.94
2023-05-19T18:22:05.688Z,100997.41
2023-05-19T18:24:32.302Z,101007.16
2023-05-19T18:26:59.175Z,101009.81
2023-05-19T18:29:25.896Z,101009.81
2023-05-19T18:31:52.750Z,101012.47
2023-05-19T18:34:19.525Z,101012.47
2023-05-19T18:36:46.177Z,101012.47
2023-05-19T18:39:12.837Z,101016.00
2023-05-19T18:41:42.698Z,101023.09
2023-05-19T18:44:09.573Z,101012.50
2023-05-19T18:46:36.206Z,101013.44
2023-05-19T18:49:03.839Z,101030.19
2023-05-19T18:51:35.022Z,101033.69
2023-05-19T18:54:01.791Z,101031.06
2023-05-19T18:56:31.013Z,101031.06
2023-05-19T18:59:00.320Z,101035.56
2023-05-19T19:01:27.058Z,101034.63
2023-05-19T19:03:53.756Z,101036.41
2023-05-19T19:06:23.473Z,101032.84
2023-05-19T19:08:50.465Z,101033.84
2023-05-19T19:11:17.243Z,101032.91
2023-05-19T19:13:43.930Z,101035.56
2023-05-19T19:16:10.888Z,101033.78
2023-05-19T19:18:37.686Z,101029.41
2023-05-19T19:21:05.887Z,101041.81
2023-05-19T19:23:32.899Z,101044.47
2023-05-19T19:25:59.865Z,101041.81
2023-05-19T19:28:26.921Z,101047.13
2023-05-19T19:30:53.585Z,101052.41
2023-05-19T19:33:20.630Z,101052.41
2023-05-19T19:35:47.362Z,101049.75
2023-05-19T19:38:14.196Z,101055.06
2023-05-19T19:40:40.852Z,101055.97
2023-05-19T19:43:07.530Z,101059.53
2023-05-19T19:45:34.969Z,101061.25
2023-05-19T19:48:01.891Z,101062.19
2023-05-19T19:50:31.101Z,101071.88
2023-05-19T19:52:57.872Z,101064.84
2023-05-19T19:55:24.487Z,101066.63
2023-05-19T19:57:51.390Z,101067.50
2023-05-19T20:00:18.520Z,101079.88
2023-05-19T20:03:03.769Z,101075.44
2023-05-19T20:05:31.390Z,101074.59
2023-05-19T20:07:58.049Z,101072.84
2023-05-19T20:10:24.695Z,101071.94
2023-05-19T20:12:52.054Z,101075.44
2023-05-19T20:15:19.008Z,101079.88
2023-05-19T20:17:45.990Z,101077.22
2023-05-19T20:20:15.185Z,101078.16
2023-05-19T20:22:44.405Z,101078.09
2023-05-19T20:25:16.308Z,101086.03
2023-05-19T20:27:43.126Z,101072.84
2023-05-19T20:30:10.102Z,101072.00
2023-05-19T20:32:36.818Z,101072.88
2023-05-19T20:35:03.509Z,101072.00
2023-05-19T20:37:30.619Z,101078.16
2023-05-19T20:39:57.271Z,101078.09
2023-05-19T20:42:26.780Z,101075.50
2023-05-19T20:44:53.468Z,101070.13
2023-05-19T20:47:21.042Z,101071.06
2023-05-19T20:49:50.864Z,101072.78
2023-05-19T20:52:17.759Z,101070.13
2023-05-19T20:54:45.413Z,101071.94
2023-05-19T20:57:12.734Z,101065.69
2023-05-19T20:59:39.518Z,101070.13
2023-05-19T21:02:07.665Z,101072.78
2023-05-19T21:04:34.520Z,101073.66
2023-05-19T21:07:01.381Z,101075.44
2023-05-19T21:09:28.103Z,101077.16
2023-05-19T21:11:54.745Z,101078.09
2023-05-19T21:14:21.780Z,101070.13
2023-05-19T21:16:49.306Z,101071.88
2023-05-19T21:19:16.278Z,101071.88
2023-05-19T21:21:44.844Z,101064.84
2023-05-19T21:24:12.863Z,101065.69
2023-05-19T21:26:40.033Z,101065.69
2023-05-19T21:29:07.152Z,101075.41
2023-05-19T21:31:35.345Z,101075.41
2023-05-19T21:34:07.672Z,101072.78
2023-05-19T21:36:35.278Z,101076.31
2023-05-19T21:39:01.990Z,101068.34
2023-05-19T21:41:28.755Z,101070.13
2023-05-19T21:43:57.722Z,101075.44
2023-05-19T21:46:24.524Z,101078.09
2023-05-19T21:48:51.310Z,101072.78
2023-05-19T21:51:20.040Z,101064.84
2023-05-19T21:53:46.648Z,101068.34
2023-05-19T21:56:13.387Z,101063.97
2023-05-19T21:58:40.114Z,101064.84
2023-05-19T22:01:07.980Z,101058.62
2023-05-19T22:03:34.754Z,101055.09
2023-05-19T22:06:01.770Z,101059.53
2023-05-19T22:08:28.676Z,101056.88
2023-05-19T22:10:55.765Z,101055.09
2023-05-19T22:13:22.555Z,101054.25
2023-05-19T22:15:49.406Z,101053.31
2023-05-19T22:18:16.846Z,101051.59
2023-05-19T22:20:43.580Z,101047.16
2023-05-19T22:23:10.769Z,101043.63
2023-05-19T22:25:37.636Z,101034.81
2023-05-19T22:28:07.454Z,101027.72
2023-05-19T22:30:40.824Z,101024.22
2023-05-19T22:33:12.028Z,101018.84
2023-05-19T22:35:38.740Z,101024.16
2023-05-19T22:38:05.708Z,101025.09
2023-05-19T22:40:32.906Z,101024.16
2023-05-19T22:42:59.686Z,101021.50
2023-05-19T22:45:26.350Z,101013.56
2023-05-19T22:47:57.697Z,101020.66
2023-05-19T22:50:24.400Z,101027.72
2023-05-19T22:52:51.124Z,101031.31
2023-05-19T22:55:17.802Z,101029.47
2023-05-19T22:57:44.565Z,101033.91
2023-05-19T23:00:16.426Z,101025.94
2023-05-19T23:02:43.204Z,101026.00
2023-05-19T23:05:10.161Z,101020.72
2023-05-19T23:07:36.871Z,101011.91
2023-05-19T23:10:05.962Z,101010.09
2023-05-19T23:12:32.719Z,101004.81
2023-05-19T23:14:59.394Z,101005.66
2023-05-19T23:17:26.408Z,101003.09
2023-05-19T23:19:53.123Z,101009.25
2023-05-19T23:22:19.922Z,101009.28
2023-05-19T23:24:46.698Z,101006.63
2023-05-19T23:27:13.401Z,101007.50
2023-05-19T23:29:40.097Z,101010.13
2023-05-19T23:32:07.297Z,101007.50
2023-05-19T23:34:33.920Z,101007.50
2023-05-19T23:37:00.578Z,101009.28
2023-05-19T23:39:27.980Z,101007.50
2023-05-19T23:41:54.643Z,101006.63
2023-05-19T23:44:21.350Z,101004.03
2023-05-19T23:46:48.100Z,101004.03
2023-05-19T23:49:14.893Z,101002.25
2023-05-19T23:51:41.530Z,100999.59
2023-05-19T23:54:08.180Z,100995.22
2023-05-19T23:56:34.934Z,100991.66
2023-05-19T23:59:01.609Z,100992.56
